createdAt,value
2023-03-20T00:02:46.514Z,7.20
2023-03-20T00:07:50.950Z,8.27
2023-03-20T00:12:54.467Z,7.85
2023-03-20T00:17:59.629Z,6.85
2023-03-20T00:23:04.222Z,8.68
2023-03-20T00:28:32.668Z,7.88
2023-03-20T00:33:38.294Z,9.15
2023-03-20T00:38:41.734Z,8.45
2023-03-20T00:43:45.890Z,9.52
2023-03-20T00:48:51.791Z,8.63
2023-03-20T00:53:55.296Z,7.95
2023-03-20T00:58:59.041Z,9.45
2023-03-20T01:04:03.746Z,7.70
2023-03-20T01:09:07.073Z,9.02
2023-03-20T01:14:15.795Z,8.98
2023-03-20T01:19:20.785Z,8.35
2023-03-20T01:24:24.122Z,8.27
2023-03-20T01:29:28.418Z,10.10
2023-03-20T01:34:33.198Z,9.35
2023-03-20T01:39:37.655Z,9.65
2023-03-20T01:44:41.976Z,8.25
2023-03-20T01:50:26.683Z,8.82
2023-03-20T01:55:42.626Z,8.70
2023-03-20T02:00:48.650Z,8.65
2023-03-20T02:05:56.481Z,9.18
2023-03-20T02:11:03.400Z,8.95
2023-03-20T02:16:12.138Z,8.48
2023-03-20T02:22:05.434Z,10.75
2023-03-20T02:27:19.513Z,8.43
2023-03-20T02:33:02.919Z,8.13
2023-03-20T02:38:23.379Z,7.45
2023-03-20T02:43:33.363Z,7.60
2023-03-20T02:48:46.471Z,8.88
2023-03-20T02:53:56.638Z,10.45
2023-03-20T02:59:08.976Z,10.07
2023-03-20T03:04:17.673Z,10.05
2023-03-20T03:09:26.076Z,9.00
2023-03-20T03:14:38.109Z,8.40
2023-03-20T03:19:51.919Z,8.32
2023-03-20T03:24:56.838Z,10.00
2023-03-20T03:30:03.308Z,8.57
2023-03-20T03:35:12.316Z,10.02
2023-03-20T03:40:23.288Z,8.57
2023-03-20T03:45:34.242Z,9.93
2023-03-20T03:50:48.022Z,9.57
2023-03-20T03:55:57.844Z,9.40
2023-03-20T04:01:03.974Z,10.63
2023-03-20T04:06:10.138Z,11.55
2023-03-20T04:11:17.574Z,9.75
2023-03-20T04:16:23.491Z,9.73
2023-03-20T04:21:27.488Z,10.95
2023-03-20T04:26:32.519Z,10.10
2023-03-20T04:31:36.118Z,10.05
2023-03-20T04:37:08.831Z,9.55
2023-03-20T04:42:24.219Z,9.10
2023-03-20T04:47:33.506Z,11.43
2023-03-20T04:52:36.843Z,9.63
2023-03-20T04:57:41.617Z,10.75
2023-03-20T05:02:47.877Z,10.55
2023-03-20T05:07:52.736Z,12.40
2023-03-20T05:13:07.107Z,10.65
2023-03-20T05:18:28.081Z,11.25
2023-03-20T05:23:51.895Z,10.68
2023-03-20T05:29:15.539Z,9.43
2023-03-20T05:34:39.142Z,9.77
2023-03-20T05:39:49.544Z,8.23
2023-03-20T05:45:17.344Z,10.02
2023-03-20T05:50:20.733Z,7.43
2023-03-20T05:55:47.116Z,8.13
2023-03-20T06:00:54.874Z,8.00
2023-03-20T06:06:17.427Z,9.27
2023-03-20T06:11:25.625Z,8.32
2023-03-20T06:16:30.785Z,8.23
2023-03-20T06:21:35.681Z,8.60
2023-03-20T06:26:40.425Z,10.90
2023-03-20T06:31:48.899Z,9.18
2023-03-20T06:37:00.603Z,6.88
2023-03-20T06:42:05.322Z,7.20
2023-03-20T06:47:10.615Z,7.95
2023-03-20T06:52:18.112Z,10.63
2023-03-20T06:57:27.933Z,8.38
2023-03-20T07:02:33.471Z,7.07
2023-03-20T07:07:37.650Z,8.48
2023-03-20T07:12:41.518Z,9.35
2023-03-20T07:17:47.611Z,8.05
2023-03-20T07:22:51.187Z,9.90
2023-03-20T07:27:59.394Z,6.80
2023-03-20T07:33:06.488Z,6.57
2023-03-20T07:38:11.401Z,5.72
2023-03-20T07:43:25.294Z,7.25
2023-03-20T07:48:36.501Z,6.88
2023-03-20T07:53:40.159Z,6.80
2023-03-20T07:58:43.474Z,5.93
2023-03-20T08:03:48.772Z,4.85
2023-03-20T08:08:52.717Z,4.10
2023-03-20T08:13:56.356Z,5.18
2023-03-20T08:19:02.367Z,3.70
2023-03-20T08:24:06.253Z,5.35
2023-03-20T08:29:09.610Z,4.53
2023-03-20T08:34:14.563Z,4.65
2023-03-20T08:39:17.917Z,3.97
2023-03-20T08:44:21.432Z,3.45
2023-03-20T08:49:26.395Z,4.47
2023-03-20T08:54:30.005Z,3.67
2023-03-20T08:59:33.466Z,3.70
2023-03-20T09:04:38.221Z,4.82
2023-03-20T09:09:41.633Z,3.15
2023-03-20T09:14:45.868Z,2.75
2023-03-20T09:19:51.127Z,2.58
2023-03-20T09:24:54.639Z,2.30
2023-03-20T09:29:57.959Z,4.20
2023-03-20T09:35:03.108Z,4.57
2023-03-20T09:40:07.563Z,3.78
2023-03-20T09:45:16.957Z,3.45
2023-03-20T09:50:30.252Z,2.65
2023-03-20T09:55:36.729Z,2.17
2023-03-20T10:00:43.941Z,2.65
2023-03-20T10:05:53.581Z,2.33
2023-03-20T10:11:05.519Z,2.60
2023-03-20T10:16:18.255Z,1.48
2023-03-20T10:21:30.124Z,2.17
2023-03-20T10:26:36.189Z,2.00
2023-03-20T10:31:46.548Z,1.98
2023-03-20T10:37:02.329Z,1.30
2023-03-20T10:42:14.966Z,1.35
2023-03-20T10:47:21.810Z,1.75
2023-03-20T10:52:29.372Z,1.90
2023-03-20T10:57:36.609Z,1.98
2023-03-20T11:02:40.016Z,1.83
2023-03-20T11:07:45.557Z,1.73
2023-03-20T11:12:52.425Z,2.08
2023-03-20T11:17:57.829Z,1.67
2023-03-20T11:23:05.885Z,2.97
2023-03-20T11:28:26.948Z,2.00
2023-03-20T11:33:31.260Z,3.00
2023-03-20T11:38:36.088Z,2.20
2023-03-20T11:43:42.678Z,2.00
2023-03-20T11:48:47.152Z,1.92
2023-03-20T11:54:02.910Z,2.22
2023-03-20T11:59:15.457Z,2.40
2023-03-20T12:04:19.856Z,2.05
2023-03-20T12:09:34.974Z,2.78
2023-03-20T12:14:44.891Z,2.75
2023-03-20T12:19:50.272Z,3.10
2023-03-20T12:25:02.904Z,1.92
2023-03-20T12:30:11.813Z,2.10
2023-03-20T12:35:19.063Z,2.28
2023-03-20T12:40:32.658Z,2.17
2023-03-20T12:45:44.207Z,2.00
2023-03-20T12:50:55.910Z,1.90
2023-03-20T12:56:09.607Z,1.70
2023-03-20T13:01:19.494Z,2.45
2023-03-20T13:06:31.729Z,2.03
2023-03-20T13:11:43.988Z,1.90
2023-03-20T13:16:56.143Z,2.65
2023-03-20T13:22:05.815Z,1.63
2023-03-20T13:27:35.794Z,1.83
2023-03-20T13:32:49.265Z,1.55
2023-03-20T13:37:55.840Z,3.20
2023-03-20T13:43:07.988Z,1.92
2023-03-20T13:48:26.026Z,2.75
2023-03-20T13:53:38.345Z,2.63
2023-03-20T13:58:53.581Z,1.98
2023-03-20T14:03:57.955Z,1.42
2023-03-20T14:09:01.708Z,2.47
2023-03-20T14:14:13.889Z,2.10
2023-03-20T14:19:20.954Z,3.83
2023-03-20T14:24:26.283Z,2.35
2023-03-20T14:29:39.430Z,1.50
2023-03-20T14:34:47.910Z,2.47
2023-03-20T14:39:55.504Z,1.65
2023-03-20T14:45:26.830Z,2.38
2023-03-20T14:50:35.599Z,2.42
2023-03-20T14:55:53.341Z,2.63
2023-03-20T15:01:04.472Z,3.33
2023-03-20T15:06:10.633Z,2.33
2023-03-20T15:11:15.899Z,1.60
2023-03-20T15:16:29.045Z,1.73
2023-03-20T15:21:38.139Z,2.00
2023-03-20T15:26:43.273Z,1.73
2023-03-20T15:32:06.499Z,2.10
2023-03-20T15:37:20.944Z,1.88
2023-03-20T15:42:27.668Z,1.55
2023-03-20T15:47:32.583Z,1.70
2023-03-20T15:52:43.142Z,1.35
2023-03-20T15:57:47.534Z,1.45
2023-03-20T16:02:53.021Z,1.60
2023-03-20T16:07:57.164Z,1.48
2023-03-20T16:13:00.634Z,2.45
2023-03-20T16:18:06.876Z,1.58
2023-03-20T16:23:11.198Z,1.88
2023-03-20T16:28:16.602Z,2.00
2023-03-20T16:33:21.589Z,2.00
2023-03-20T16:38:26.555Z,3.70
2023-03-20T16:43:32.870Z,1.92
2023-03-20T16:48:39.348Z,2.10
2023-03-20T16:53:46.835Z,2.35
2023-03-20T16:58:50.771Z,2.50
2023-03-20T17:03:57.695Z,3.08
2023-03-20T17:09:09.850Z,2.17
2023-03-20T17:14:13.305Z,1.80
2023-03-20T17:19:23.038Z,2.22
2023-03-20T17:24:26.815Z,1.95
2023-03-20T17:29:30.347Z,1.92
2023-03-20T17:34:35.809Z,2.50
2023-03-20T17:39:44.462Z,1.92
2023-03-20T17:44:49.104Z,2.67
2023-03-20T17:49:54.957Z,1.92
2023-03-20T17:54:59.407Z,2.80
2023-03-20T18:00:04.833Z,2.10
2023-03-20T18:05:12.816Z,2.42
2023-03-20T18:10:25.022Z,2.17
2023-03-20T18:15:30.000Z,2.47
2023-03-20T18:20:38.583Z,2.75
2023-03-20T18:25:43.968Z,4.03
2023-03-20T18:30:51.370Z,3.67
2023-03-20T18:36:00.240Z,2.90
2023-03-20T18:41:04.717Z,3.22
2023-03-20T18:46:19.047Z,2.58
2023-03-20T18:51:27.323Z,4.13
2023-03-20T18:56:38.386Z,3.65
2023-03-20T19:01:44.156Z,2.72
2023-03-20T19:06:53.953Z,3.55
2023-03-20T19:12:01.647Z,2.70
2023-03-20T19:17:08.123Z,2.83
2023-03-20T19:22:28.526Z,3.45
2023-03-20T19:27:36.900Z,3.38
2023-03-20T19:32:45.886Z,2.65
2023-03-20T19:37:51.869Z,3.05
2023-03-20T19:43:02.374Z,2.78
2023-03-20T19:48:17.000Z,3.33
2023-03-20T19:53:27.266Z,3.17
2023-03-20T19:58:34.311Z,3.30
2023-03-20T20:03:38.691Z,3.10
2023-03-20T20:08:49.422Z,3.08
2023-03-20T20:14:14.437Z,2.33
2023-03-20T20:19:19.694Z,3.38
2023-03-20T20:24:26.139Z,2.55
2023-03-20T20:29:30.754Z,3.15
2023-03-20T20:35:30.656Z,2.33
2023-03-20T20:40:04.093Z,2.78
2023-03-20T20:45:14.669Z,4.28
2023-03-20T20:50:21.735Z,2.40
2023-03-20T20:55:30.656Z,2.72
2023-03-20T21:00:48.959Z,2.67
2023-03-20T21:05:55.559Z,4.25
2023-03-20T21:11:02.988Z,3.15
2023-03-20T21:16:08.138Z,2.33
2023-03-20T21:21:13.792Z,3.95
2023-03-20T21:26:19.431Z,2.63
2023-03-20T21:31:28.062Z,2.42
2023-03-20T21:36:35.124Z,2.42
2023-03-20T21:41:41.995Z,2.22
2023-03-20T21:47:35.591Z,2.92
2023-03-20T21:58:23.406Z,2.30
2023-03-20T22:03:09.935Z,2.28
2023-03-20T22:14:37.291Z,2.28
2023-03-20T22:30:40.726Z,3.15
2023-03-20T22:46:19.545Z,2.30
2023-03-20T22:51:34.223Z,4.90
2023-03-20T22:56:38.710Z,3.22
2023-03-20T23:01:43.422Z,2.58
2023-03-20T23:06:46.876Z,2.47
2023-03-20T23:11:50.226Z,2.85
2023-03-20T23:16:55.104Z,2.83
2023-03-20T23:21:58.488Z,3.75
2023-03-20T23:27:02.084Z,3.17
2023-03-20T23:32:07.316Z,2.63
2023-03-20T23:37:10.712Z,2.58
2023-03-20T23:42:29.225Z,2.72
2023-03-20T23:47:44.507Z,3.28
2023-03-20T23:52:57.168Z,2.38
2023-03-20T23:58:04.721Z,2.88
